In Rescue
 
Open Full Screen Window  High Contrast Mode
Wind Gusting 00 knots
04
July 13, 2020 10:02 AM CDT
Weather Information
Wind Direction
  110 °
Wind Speed
  04 kt (5 mph)
Wind Gust
  00 kt (0 mph)
Altimeter
29.96 in
Visibility
10 SM
Temperature
23° C
73° F
Dewpoint
18° C
64° F
Humidity
74%
1hr Rain Fall
00.00 in.
24hr Rain Fall
00.00 in.
Sky Condition
Clear
VFR

METAR K04W 131502Z AUTO 11004KT 10SM CLR 23/18 A2996 RMK AO2

FAA Disclaimer: The data displayed is for advisory purposes only and is not to be used for flight planning or operations.